sensor_id;sensor_type;location;lat;lon;timestamp;pressure;altitude;pressure_sealevel;temperature;humidity
42111;BME280;27766;52.174;5.456;2023-08-06T00:01:16;100356.81;;;16.01;100.00
42111;BME280;27766;52.174;5.456;2023-08-06T00:03:45;100354.22;;;15.98;100.00
42111;BME280;27766;52.174;5.456;2023-08-06T00:06:13;100353.34;;;15.99;100.00
42111;BME280;27766;52.174;5.456;2023-08-06T00:08:40;100349.00;;;16.00;100.00
42111;BME280;27766;52.174;5.456;2023-08-06T00:11:07;100355.88;;;16.07;100.00
42111;BME280;27766;52.174;5.456;2023-08-06T00:13:34;100350.69;;;16.04;100.00
42111;BME280;27766;52.174;5.456;2023-08-06T00:16:09;100345.47;;;16.04;100.00
42111;BME280;27766;52.174;5.456;2023-08-06T00:18:36;100334.31;;;15.91;100.00
42111;BME280;27766;52.174;5.456;2023-08-06T00:21:03;100340.38;;;15.93;100.00
42111;BME280;27766;52.174;5.456;2023-08-06T00:23:31;100344.72;;;15.94;100.00
42111;BME280;27766;52.174;5.456;2023-08-06T00:25:58;100347.31;;;15.97;100.00
42111;BME280;27766;52.174;5.456;2023-08-06T00:28:25;100331.75;;;15.88;100.00
42111;BME280;27766;52.174;5.456;2023-08-06T00:30:53;100341.25;;;15.92;100.00
42111;BME280;27766;52.174;5.456;2023-08-06T00:33:22;100353.44;;;15.93;100.00
42111;BME280;27766;52.174;5.456;2023-08-06T00:35:49;100340.34;;;15.94;100.00
42111;BME280;27766;52.174;5.456;2023-08-06T00:38:17;100343.84;;;15.95;100.00
42111;BME280;27766;52.174;5.456;2023-08-06T00:40:44;100340.34;;;15.97;100.00
42111;BME280;27766;52.174;5.456;2023-08-06T00:43:11;100340.34;;;15.97;100.00
42111;BME280;27766;52.174;5.456;2023-08-06T00:45:38;100340.31;;;15.99;100.00
42111;BME280;27766;52.174;5.456;2023-08-06T00:48:06;100335.13;;;15.96;100.00
42111;BME280;27766;52.174;5.456;2023-08-06T00:50:34;100331.69;;;15.94;100.00
42111;BME280;27766;52.174;5.456;2023-08-06T00:53:01;100346.44;;;15.96;100.00
42111;BME280;27766;52.174;5.456;2023-08-06T00:55:29;100342.09;;;15.95;100.00
42111;BME280;27766;52.174;5.456;2023-08-06T00:57:56;100338.66;;;15.93;100.00
42111;BME280;27766;52.174;5.456;2023-08-06T01:00:24;100342.94;;;15.97;100.00
42111;BME280;27766;52.174;5.456;2023-08-06T01:02:53;100338.59;;;15.96;100.00
42111;BME280;27766;52.174;5.456;2023-08-06T01:05:21;100342.13;;;15.94;100.00
42111;BME280;27766;52.174;5.456;2023-08-06T01:08:04;100337.75;;;15.96;100.00
42111;BME280;27766;52.174;5.456;2023-08-06T01:16:10;100333.38;;;15.96;100.00
42111;BME280;27766;52.174;5.456;2023-08-06T01:18:38;100326.44;;;15.95;100.00
42111;BME280;27766;52.174;5.456;2023-08-06T01:21:06;100326.41;;;15.98;100.00
42111;BME280;27766;52.174;5.456;2023-08-06T01:23:34;100329.88;;;15.97;100.00
42111;BME280;27766;52.174;5.456;2023-08-06T01:28:46;100334.28;;;15.94;100.00
42111;BME280;27766;52.174;5.456;2023-08-06T01:31:25;100340.34;;;15.96;100.00
42111;BME280;27766;52.174;5.456;2023-08-06T01:33:53;100334.19;;;16.00;100.00
42111;BME280;27766;52.174;5.456;2023-08-06T01:36:22;100334.19;;;16.00;100.00
42111;BME280;27766;52.174;5.456;2023-08-06T01:38:53;100335.97;;;15.98;100.00
42111;BME280;27766;52.174;5.456;2023-08-06T01:41:20;100343.78;;;16.00;100.00
42111;BME280;27766;52.174;5.456;2023-08-06T01:43:47;100336.88;;;15.95;100.00
42111;BME280;27766;52.174;5.456;2023-08-06T01:46:15;100323.97;;;15.83;100.00
42111;BME280;27766;52.174;5.456;2023-08-06T01:48:42;100326.53;;;15.88;100.00
42111;BME280;27766;52.174;5.456;2023-08-06T01:51:09;100336.03;;;15.92;100.00
42111;BME280;27766;52.174;5.456;2023-08-06T01:53:36;100329.06;;;15.94;100.00
42111;BME280;27766;52.174;5.456;2023-08-06T01:56:04;100331.75;;;15.88;100.00
42111;BME280;27766;52.174;5.456;2023-08-06T01:58:31;100345.69;;;15.83;100.00
42111;BME280;27766;52.174;5.456;2023-08-06T02:00:58;100337.94;;;15.76;100.00
42111;BME280;27766;52.174;5.456;2023-08-06T02:03:25;100344.88;;;15.75;100.00
42111;BME280;27766;52.174;5.456;2023-08-06T02:05:53;100345.78;;;15.73;100.00
42111;BME280;27766;52.174;5.456;2023-08-06T02:08:21;100348.31;;;15.83;100.00
42111;BME280;27766;52.174;5.456;2023-08-06T02:10:48;100333.56;;;15.76;100.00
42111;BME280;27766;52.174;5.456;2023-08-06T02:13:16;100340.50;;;15.80;100.00
42111;BME280;27766;52.174;5.456;2023-08-06T02:15:44;100335.38;;;15.71;100.00
42111;BME280;27766;52.174;5.456;2023-08-06T02:18:11;100335.38;;;15.71;100.00
42111;BME280;27766;52.174;5.456;2023-08-06T02:20:38;100349.22;;;15.79;100.00
42111;BME280;27766;52.174;5.456;2023-08-06T02:23:06;100343.19;;;15.73;100.00
42111;BME280;27766;52.174;5.456;2023-08-06T02:25:33;100337.16;;;15.71;100.00
42111;BME280;27766;52.174;5.456;2023-08-06T02:28:00;100337.88;;;15.83;100.00
42111;BME280;27766;52.174;5.456;2023-08-06T02:30:27;100337.06;;;15.75;100.00
42111;BME280;27766;52.174;5.456;2023-08-06T02:32:55;100337.88;;;15.83;100.00
42111;BME280;27766;52.174;5.456;2023-08-06T02:35:22;100324.84;;;15.80;100.00
42111;BME280;27766;52.174;5.456;2023-08-06T02:37:49;100332.66;;;15.82;100.00
42111;BME280;27766;52.174;5.456;2023-08-06T02:40:16;100330.88;;;15.87;100.00
42111;BME280;27766;52.174;5.456;2023-08-06T02:42:44;100327.38;;;15.90;100.00
42111;BME280;27766;52.174;5.456;2023-08-06T02:45:11;100323.00;;;15.92;100.00
42111;BME280;27766;52.174;5.456;2023-08-06T02:47:38;100329.03;;;15.95;100.00
42111;BME280;27766;52.174;5.456;2023-08-06T02:50:05;100327.34;;;15.91;100.00
42111;BME280;27766;52.174;5.456;2023-08-06T02:52:33;100331.66;;;15.95;100.00
42111;BME280;27766;52.174;5.456;2023-08-06T02:55:00;100321.25;;;15.91;100.00
42111;BME280;27766;52.174;5.456;2023-08-06T02:57:28;100320.38;;;15.92;100.00
42111;BME280;27766;52.174;5.456;2023-08-06T02:59:55;100317.78;;;15.93;100.00
42111;BME280;27766;52.174;5.456;2023-08-06T03:02:22;100317.69;;;16.00;100.00
42111;BME280;27766;52.174;5.456;2023-08-06T03:04:49;100312.59;;;15.89;100.00
42111;BME280;27766;52.174;5.456;2023-08-06T03:07:17;100321.25;;;15.94;100.00
42111;BME280;27766;52.174;5.456;2023-08-06T03:09:44;100316.91;;;15.91;100.00
42111;BME280;27766;52.174;5.456;2023-08-06T03:12:11;100309.97;;;15.90;100.00
42111;BME280;27766;52.174;5.456;2023-08-06T03:14:38;100314.38;;;15.87;100.00
42111;BME280;27766;52.174;5.456;2023-08-06T03:17:05;100317.84;;;15.89;100.00
42111;BME280;27766;52.174;5.456;2023-08-06T03:19:32;100307.44;;;15.84;100.00
42111;BME280;27766;52.174;5.456;2023-08-06T03:21:59;100321.34;;;15.86;100.00
42111;BME280;27766;52.174;5.456;2023-08-06T03:24:27;100311.78;;;15.82;100.00
42111;BME280;27766;52.174;5.456;2023-08-06T03:26:54;100321.34;;;15.85;100.00
42111;BME280;27766;52.174;5.456;2023-08-06T03:29:21;100317.00;;;15.83;100.00
42111;BME280;27766;52.174;5.456;2023-08-06T03:31:49;100321.38;;;15.83;100.00
42111;BME280;27766;52.174;5.456;2023-08-06T03:34:17;100313.53;;;15.81;100.00
42111;BME280;27766;52.174;5.456;2023-08-06T03:36:44;100311.81;;;15.77;100.00
42111;BME280;27766;52.174;5.456;2023-08-06T03:39:11;100312.72;;;15.76;100.00
42111;BME280;27766;52.174;5.456;2023-08-06T03:41:38;100320.56;;;15.75;100.00
42111;BME280;27766;52.174;5.456;2023-08-06T03:44:06;100318.78;;;15.78;100.00
42111;BME280;27766;52.174;5.456;2023-08-06T03:46:33;100310.06;;;15.79;100.00
42111;BME280;27766;52.174;5.456;2023-08-06T03:49:01;100317.13;;;15.71;100.00
42111;BME280;27766;52.174;5.456;2023-08-06T03:51:28;100323.16;;;15.75;100.00
42111;BME280;27766;52.174;5.456;2023-08-06T03:53:55;100324.06;;;15.72;100.00
42111;BME280;27766;52.174;5.456;2023-08-06T03:56:22;100326.59;;;15.78;100.00
42111;BME280;27766;52.174;5.456;2023-08-06T03:58:49;100310.00;;;15.82;100.00
42111;BME280;27766;52.174;5.456;2023-08-06T04:01:17;100321.38;;;15.83;100.00
42111;BME280;27766;52.174;5.456;2023-08-06T04:03:47;100313.56;;;15.78;100.00
42111;BME280;27766;52.174;5.456;2023-08-06T04:06:14;100322.13;;;15.93;100.00
42111;BME280;27766;52.174;5.456;2023-08-06T04:08:42;100316.00;;;15.94;100.00
42111;BME280;27766;52.174;5.456;2023-08-06T04:11:09;100318.59;;;15.97;100.00
42111;BME280;27766;52.174;5.456;2023-08-06T04:13:37;100315.97;;;15.98;100.00
42111;BME280;27766;52.174;5.456;2023-08-06T04:16:04;100312.69;;;15.79;100.00
42111;BME280;27766;52.174;5.456;2023-08-06T04:18:32;100318.03;;;15.67;100.00
42111;BME280;27766;52.174;5.456;2023-08-06T04:21:01;100322.34;;;15.71;100.00
42111;BME280;27766;52.174;5.456;2023-08-06T04:23:28;100311.09;;;15.64;100.00
42111;BME280;27766;52.174;5.456;2023-08-06T04:25:58;100321.44;;;15.74;100.00
42111;BME280;27766;52.174;5.456;2023-08-06T04:28:26;100327.63;;;15.65;100.00
42111;BME280;27766;52.174;5.456;2023-08-06T04:30:53;100331.06;;;15.67;100.00
42111;BME280;27766;52.174;5.456;2023-08-06T04:33:21;100329.31;;;15.69;100.00
42111;BME280;27766;52.174;5.456;2023-08-06T04:35:54;100331.88;;;15.74;100.00
42111;BME280;27766;52.174;5.456;2023-08-06T04:38:25;100334.47;;;15.75;100.00
42111;BME280;27766;52.174;5.456;2023-08-06T04:40:53;100339.69;;;15.74;100.00
42111;BME280;27766;52.174;5.456;2023-08-06T04:43:20;100335.34;;;15.73;100.00
42111;BME280;27766;52.174;5.456;2023-08-06T04:45:49;100339.66;;;15.75;100.00
42111;BME280;27766;52.174;5.456;2023-08-06T04:48:20;100343.19;;;15.74;100.00
42111;BME280;27766;52.174;5.456;2023-08-06T04:50:49;100340.56;;;15.76;100.00
42111;BME280;27766;52.174;5.456;2023-08-06T04:53:19;100334.47;;;15.75;100.00
42111;BME280;27766;52.174;5.456;2023-08-06T04:55:47;100340.47;;;15.82;100.00
42111;BME280;27766;52.174;5.456;2023-08-06T04:58:14;100349.19;;;15.84;100.00
42111;BME280;27766;52.174;5.456;2023-08-06T05:00:42;100342.13;;;15.91;100.00
42111;BME280;27766;52.174;5.456;2023-08-06T05:03:09;100347.44;;;15.86;100.00
42111;BME280;27766;52.174;5.456;2023-08-06T05:05:36;100348.28;;;15.87;100.00
42111;BME280;27766;52.174;5.456;2023-08-06T05:08:03;100350.88;;;15.90;100.00
42111;BME280;27766;52.174;5.456;2023-08-06T05:10:31;100352.59;;;15.89;100.00
42111;BME280;27766;52.174;5.456;2023-08-06T05:12:58;100353.47;;;15.90;100.00
42111;BME280;27766;52.174;5.456;2023-08-06T05:15:25;100361.31;;;15.90;100.00
42111;BME280;27766;52.174;5.456;2023-08-06T05:17:52;100359.59;;;15.89;100.00
42111;BME280;27766;52.174;5.456;2023-08-06T05:20:20;100356.13;;;15.83;100.00
42111;BME280;27766;52.174;5.456;2023-08-06T05:22:47;100363.13;;;15.83;100.00
42111;BME280;27766;52.174;5.456;2023-08-06T05:25:15;100370.03;;;15.89;100.00
42111;BME280;27766;52.174;5.456;2023-08-06T05:27:42;100370.94;;;15.86;100.00
42111;BME280;27766;52.174;5.456;2023-08-06T05:30:10;100381.34;;;15.88;100.00
42111;BME280;27766;52.174;5.456;2023-08-06T05:32:37;100382.19;;;15.90;100.00
42111;BME280;27766;52.174;5.456;2023-08-06T05:35:05;100383.06;;;15.89;100.00
42111;BME280;27766;52.174;5.456;2023-08-06T05:37:33;100370.03;;;15.86;100.00
42111;BME280;27766;52.174;5.456;2023-08-06T05:40:00;100377.84;;;15.89;100.00
42111;BME280;27766;52.174;5.456;2023-08-06T05:42:28;100385.63;;;15.93;100.00
42111;BME280;27766;52.174;5.456;2023-08-06T05:44:56;100381.34;;;15.85;100.00
42111;BME280;27766;52.174;5.456;2023-08-06T05:47:23;100395.16;;;15.96;100.00
42111;BME280;27766;52.174;5.456;2023-08-06T05:49:50;100392.59;;;15.91;100.00
42111;BME280;27766;52.174;5.456;2023-08-06T05:52:17;100401.25;;;15.95;100.00
42111;BME280;27766;52.174;5.456;2023-08-06T05:54:44;100394.31;;;15.94;100.00
42111;BME280;27766;52.174;5.456;2023-08-06T05:57:11;100400.38;;;15.96;100.00
42111;BME280;27766;52.174;5.456;2023-08-06T05:59:40;100398.69;;;15.93;100.00
42111;BME280;27766;52.174;5.456;2023-08-06T06:02:07;100406.44;;;15.98;100.00
42111;BME280;27766;52.174;5.456;2023-08-06T06:04:35;100403.81;;;15.98;100.00
42111;BME280;27766;52.174;5.456;2023-08-06T06:07:02;100414.22;;;16.03;100.00
42111;BME280;27766;52.174;5.456;2023-08-06T06:09:29;100415.97;;;16.02;100.00
42111;BME280;27766;52.174;5.456;2023-08-06T06:11:56;100416.81;;;16.04;100.00
42111;BME280;27766;52.174;5.456;2023-08-06T06:14:24;100420.34;;;16.00;100.00
42111;BME280;27766;52.174;5.456;2023-08-06T06:16:51;100424.66;;;16.04;100.00
42111;BME280;27766;52.174;5.456;2023-08-06T06:19:20;100432.47;;;16.03;100.00
42111;BME280;27766;52.174;5.456;2023-08-06T06:21:47;100427.25;;;16.06;100.00
42111;BME280;27766;52.174;5.456;2023-08-06T06:24:14;100433.31;;;16.06;100.00
42111;BME280;27766;52.174;5.456;2023-08-06T06:26:41;100429.88;;;16.04;100.00
42111;BME280;27766;52.174;5.456;2023-08-06T06:29:09;100430.75;;;16.03;100.00
42111;BME280;27766;52.174;5.456;2023-08-06T06:31:36;100434.19;;;16.07;100.00
42111;BME280;27766;52.174;5.456;2023-08-06T06:34:03;100435.03;;;16.10;100.00
42111;BME280;27766;52.174;5.456;2023-08-06T06:36:30;100435.88;;;16.11;100.00
42111;BME280;27766;52.174;5.456;2023-08-06T06:38:57;100435.88;;;16.12;100.00
42111;BME280;27766;52.174;5.456;2023-08-06T06:41:24;100445.47;;;16.10;100.00
42111;BME280;27766;52.174;5.456;2023-08-06T06:43:53;100441.13;;;16.06;100.00
42111;BME280;27766;52.174;5.456;2023-08-06T06:46:20;100442.03;;;16.07;100.00
42111;BME280;27766;52.174;5.456;2023-08-06T06:48:47;100450.59;;;16.17;100.00
42111;BME280;27766;52.174;5.456;2023-08-06T06:51:14;100450.69;;;16.10;100.00
42111;BME280;27766;52.174;5.456;2023-08-06T06:53:41;100445.50;;;16.09;100.00
42111;BME280;27766;52.174;5.456;2023-08-06T06:56:09;100449.88;;;16.05;100.00
42111;BME280;27766;52.174;5.456;2023-08-06T06:58:36;100448.97;;;16.06;100.00
42111;BME280;27766;52.174;5.456;2023-08-06T07:01:06;100443.72;;;16.12;100.00
42111;BME280;27766;52.174;5.456;2023-08-06T07:03:33;100453.25;;;16.15;100.00
42111;BME280;27766;52.174;5.456;2023-08-06T07:06:00;100444.53;;;16.14;100.00
42111;BME280;27766;52.174;5.456;2023-08-06T07:08:27;100441.03;;;16.17;100.00
42111;BME280;27766;52.174;5.456;2023-08-06T07:11:05;100448.78;;;16.25;100.00
42111;BME280;27766;52.174;5.456;2023-08-06T07:13:34;100447.81;;;16.32;100.00
42111;BME280;27766;52.174;5.456;2023-08-06T07:16:01;100448.75;;;16.28;100.00
42111;BME280;27766;52.174;5.456;2023-08-06T07:18:28;100451.22;;;16.39;100.00
42111;BME280;27766;52.174;5.456;2023-08-06T07:20:56;100446.88;;;16.39;100.00
42111;BME280;27766;52.174;5.456;2023-08-06T07:23:25;100453.66;;;16.53;100.00
42111;BME280;27766;52.174;5.456;2023-08-06T07:25:52;100450.97;;;16.60;100.00
42111;BME280;27766;52.174;5.456;2023-08-06T07:28:19;100451.81;;;16.61;100.00
42111;BME280;27766;52.174;5.456;2023-08-06T07:30:47;100456.06;;;16.70;100.00
42111;BME280;27766;52.174;5.456;2023-08-06T07:33:15;100460.44;;;16.68;100.00
42111;BME280;27766;52.174;5.456;2023-08-06T07:35:42;100463.00;;;16.72;100.00
42111;BME280;27766;52.174;5.456;2023-08-06T07:38:10;100456.88;;;16.73;100.00
42111;BME280;27766;52.174;5.456;2023-08-06T07:40:38;100469.13;;;16.70;100.00
42111;BME280;27766;52.174;5.456;2023-08-06T07:43:05;100464.78;;;16.67;100.00
42111;BME280;27766;52.174;5.456;2023-08-06T07:45:35;100468.28;;;16.68;100.00
42111;BME280;27766;52.174;5.456;2023-08-06T07:48:03;100472.63;;;16.67;100.00
42111;BME280;27766;52.174;5.456;2023-08-06T07:50:31;100471.66;;;16.76;100.00
42111;BME280;27766;52.174;5.456;2023-08-06T07:52:58;100467.16;;;16.86;100.00
42111;BME280;27766;52.174;5.456;2023-08-06T07:55:28;100475.88;;;16.85;100.00
42111;BME280;27766;52.174;5.456;2023-08-06T07:57:55;100468.09;;;16.82;100.00
42111;BME280;27766;52.174;5.456;2023-08-06T08:00:23;100469.88;;;16.80;100.00
42111;BME280;27766;52.174;5.456;2023-08-06T08:02:50;100469.81;;;16.84;100.00
42111;BME280;27766;52.174;5.456;2023-08-06T08:05:17;100468.19;;;16.74;100.00
42111;BME280;27766;52.174;5.456;2023-08-06T08:07:44;100469.25;;;16.60;100.00
42111;BME280;27766;52.174;5.456;2023-08-06T08:10:12;100478.81;;;16.60;100.00
42111;BME280;27766;52.174;5.456;2023-08-06T08:12:39;100477.16;;;16.53;100.00
42111;BME280;27766;52.174;5.456;2023-08-06T08:15:07;100476.34;;;16.49;100.00
42111;BME280;27766;52.174;5.456;2023-08-06T08:17:34;100481.50;;;16.54;100.00
42111;BME280;27766;52.174;5.456;2023-08-06T08:20:02;100484.19;;;16.48;100.00
42111;BME280;27766;52.174;5.456;2023-08-06T08:22:29;100486.84;;;16.46;100.00
42111;BME280;27766;52.174;5.456;2023-08-06T08:24:57;100476.34;;;16.51;100.00
42111;BME280;27766;52.174;5.456;2023-08-06T08:27:24;100485.00;;;16.53;100.00
42111;BME280;27766;52.174;5.456;2023-08-06T08:29:51;100478.03;;;16.52;100.00
42111;BME280;27766;52.174;5.456;2023-08-06T08:32:18;100484.91;;;16.59;100.00
42111;BME280;27766;52.174;5.456;2023-08-06T08:34:46;100484.97;;;16.56;100.00
42111;BME280;27766;52.174;5.456;2023-08-06T08:37:13;100489.16;;;16.69;100.00
42111;BME280;27766;52.174;5.456;2023-08-06T08:39:40;100490.84;;;16.72;100.00
42111;BME280;27766;52.174;5.456;2023-08-06T08:42:09;100489.22;;;16.65;100.00
42111;BME280;27766;52.174;5.456;2023-08-06T08:44:37;100491.81;;;16.66;100.00
42111;BME280;27766;52.174;5.456;2023-08-06T08:47:06;100496.97;;;16.71;100.00
42111;BME280;27766;52.174;5.456;2023-08-06T08:49:35;100491.03;;;16.59;100.00
42111;BME280;27766;52.174;5.456;2023-08-06T08:52:04;100494.13;;;16.14;100.00
42111;BME280;27766;52.174;5.456;2023-08-06T08:54:37;100501.28;;;15.98;100.00
42111;BME280;27766;52.174;5.456;2023-08-06T08:57:05;100502.50;;;15.52;100.00
42111;BME280;27766;52.174;5.456;2023-08-06T08:59:33;100506.78;;;15.61;100.00
42111;BME280;27766;52.174;5.456;2023-08-06T09:02:01;100511.19;;;15.53;100.00
42111;BME280;27766;52.174;5.456;2023-08-06T09:04:29;100507.78;;;15.42;100.00
42111;BME280;27766;52.174;5.456;2023-08-06T09:07:02;100516.41;;;15.53;100.00
42111;BME280;27766;52.174;5.456;2023-08-06T09:09:31;100518.16;;;15.48;100.00
42111;BME280;27766;52.174;5.456;2023-08-06T09:12:01;100533.91;;;15.37;100.00
42111;BME280;27766;52.174;5.456;2023-08-06T09:14:29;100530.50;;;15.27;100.00
42111;BME280;27766;52.174;5.456;2023-08-06T09:16:56;100530.56;;;15.15;100.00
42111;BME280;27766;52.174;5.456;2023-08-06T09:19:24;100530.56;;;15.19;100.00
42111;BME280;27766;52.174;5.456;2023-08-06T09:21:55;100531.44;;;15.15;100.00
42111;BME280;27766;52.174;5.456;2023-08-06T09:24:23;100544.47;;;15.18;100.00
42111;BME280;27766;52.174;5.456;2023-08-06T09:26:50;100547.09;;;15.17;100.00
42111;BME280;27766;52.174;5.456;2023-08-06T09:29:18;100540.13;;;15.17;100.00
42111;BME280;27766;52.174;5.456;2023-08-06T09:31:47;100540.19;;;15.05;100.00
42111;BME280;27766;52.174;5.456;2023-08-06T09:34:16;100548.94;;;14.93;100.00
42111;BME280;27766;52.174;5.456;2023-08-06T09:36:48;100550.66;;;14.93;100.00
42111;BME280;27766;52.174;5.456;2023-08-06T09:39:19;100551.53;;;14.95;100.00
42111;BME280;27766;52.174;5.456;2023-08-06T09:41:47;100555.88;;;14.91;100.00
42111;BME280;27766;52.174;5.456;2023-08-06T09:44:20;100565.41;;;14.94;100.00
42111;BME280;27766;52.174;5.456;2023-08-06T09:46:54;100562.84;;;14.84;100.00
42111;BME280;27766;52.174;5.456;2023-08-06T09:49:25;100560.22;;;14.92;100.00
42111;BME280;27766;52.174;5.456;2023-08-06T09:51:53;100558.47;;;14.93;100.00
42111;BME280;27766;52.174;5.456;2023-08-06T09:54:24;100568.03;;;14.89;100.00
42111;BME280;27766;52.174;5.456;2023-08-06T09:56:54;100571.47;;;15.02;100.00
42111;BME280;27766;52.174;5.456;2023-08-06T09:59:23;100569.78;;;14.88;100.00
42111;BME280;27766;52.174;5.456;2023-08-06T10:01:51;100573.25;;;14.97;100.00
42111;BME280;27766;52.174;5.456;2023-08-06T10:04:20;100577.53;;;15.06;100.00
42111;BME280;27766;52.174;5.456;2023-08-06T10:06:52;100574.09;;;15.00;100.00
42111;BME280;27766;52.174;5.456;2023-08-06T10:09:20;100575.81;;;15.01;100.00
42111;BME280;27766;52.174;5.456;2023-08-06T10:11:50;100581.03;;;15.03;100.00
42111;BME280;27766;52.174;5.456;2023-08-06T10:14:28;100587.88;;;15.23;100.00
42111;BME280;27766;52.174;5.456;2023-08-06T10:16:57;100582.66;;;15.23;100.00
42111;BME280;27766;52.174;5.456;2023-08-06T10:19:25;100581.75;;;15.30;100.00
42111;BME280;27766;52.174;5.456;2023-08-06T10:22:18;100582.63;;;15.29;100.00
42111;BME280;27766;52.174;5.456;2023-08-06T10:27:13;100591.25;;;15.43;100.00
42111;BME280;27766;52.174;5.456;2023-08-06T10:29:40;100574.78;;;15.32;100.00
42111;BME280;27766;52.174;5.456;2023-08-06T10:32:07;100582.50;;;15.50;100.00
42111;BME280;27766;52.174;5.456;2023-08-06T10:34:54;100591.25;;;15.42;100.00
42111;BME280;27766;52.174;5.456;2023-08-06T10:37:24;100581.66;;;15.44;100.00
42111;BME280;27766;52.174;5.456;2023-08-06T10:39:52;100597.38;;;15.38;100.00
42111;BME280;27766;52.174;5.456;2023-08-06T10:42:26;100588.66;;;15.43;100.00
42111;BME280;27766;52.174;5.456;2023-08-06T10:45:16;100605.19;;;15.34;100.00
42111;BME280;27766;52.174;5.456;2023-08-06T10:47:44;100601.75;;;15.32;100.00
42111;BME280;27766;52.174;5.456;2023-08-06T10:50:14;100600.00;;;15.31;100.00
42111;BME280;27766;52.174;5.456;2023-08-06T10:52:46;100581.72;;;15.36;100.00
42111;BME280;27766;52.174;5.456;2023-08-06T10:55:15;100596.41;;;15.48;100.00
42111;BME280;27766;52.174;5.456;2023-08-06T10:57:49;100605.16;;;15.39;100.00
42111;BME280;27766;52.174;5.456;2023-08-06T11:00:16;100595.66;;;15.35;100.00
42111;BME280;27766;52.174;5.456;2023-08-06T11:02:43;100600.00;;;15.31;100.00
42111;BME280;27766;52.174;5.456;2023-08-06T11:05:13;100607.81;;;15.36;100.00
42111;BME280;27766;52.174;5.456;2023-08-06T11:07:41;100611.25;;;15.38;100.00
42111;BME280;27766;52.174;5.456;2023-08-06T11:10:12;100607.78;;;15.34;100.00
42111;BME280;27766;52.174;5.456;2023-08-06T11:12:39;100612.13;;;15.39;100.00
42111;BME280;27766;52.174;5.456;2023-08-06T11:15:07;100619.94;;;15.37;100.00
42111;BME280;27766;52.174;5.456;2023-08-06T11:17:35;100627.81;;;15.34;100.00
42111;BME280;27766;52.174;5.456;2023-08-06T11:20:04;100625.22;;;15.26;100.00
42111;BME280;27766;52.174;5.456;2023-08-06T11:22:32;100629.56;;;15.26;100.00
42111;BME280;27766;52.174;5.456;2023-08-06T11:24:59;100625.28;;;15.17;100.00
42111;BME280;27766;52.174;5.456;2023-08-06T11:27:28;100630.41;;;15.31;100.00
42111;BME280;27766;52.174;5.456;2023-08-06T11:29:56;100635.66;;;15.25;100.00
42111;BME280;27766;52.174;5.456;2023-08-06T11:32:23;100626.13;;;15.19;100.00
42111;BME280;27766;52.174;5.456;2023-08-06T11:34:53;100635.66;;;15.22;100.00
42111;BME280;27766;52.174;5.456;2023-08-06T11:37:22;100634.84;;;15.13;100.00
42111;BME280;27766;52.174;5.456;2023-08-06T11:39:51;100634.81;;;15.18;100.00
42111;BME280;27766;52.174;5.456;2023-08-06T11:42:19;100644.38;;;15.17;100.00
42111;BME280;27766;52.174;5.456;2023-08-06T11:44:47;100635.72;;;15.14;100.00
42111;BME280;27766;52.174;5.456;2023-08-06T11:47:16;100639.19;;;15.11;100.00
42111;BME280;27766;52.174;5.456;2023-08-06T11:49:48;100650.47;;;15.16;100.00
42111;BME280;27766;52.174;5.456;2023-08-06T11:52:21;100641.78;;;15.14;100.00
42111;BME280;27766;52.174;5.456;2023-08-06T11:57:38;100640.13;;;14.90;100.00
42111;BME280;27766;52.174;5.456;2023-08-06T12:00:09;100647.06;;;14.97;100.00
42111;BME280;27766;52.174;5.456;2023-08-06T12:02:39;100647.06;;;14.96;100.00
42111;BME280;27766;52.174;5.456;2023-08-06T12:05:11;100643.59;;;14.97;100.00
42111;BME280;27766;52.174;5.456;2023-08-06T12:07:44;100637.50;;;14.92;100.00
42111;BME280;27766;52.174;5.456;2023-08-06T12:10:14;100649.66;;;15.00;100.00
42111;BME280;27766;52.174;5.456;2023-08-06T12:12:41;100640.97;;;15.03;100.00
42111;BME280;27766;52.174;5.456;2023-08-06T12:15:09;100645.28;;;15.06;100.00
42111;BME280;27766;52.174;5.456;2023-08-06T12:17:37;100651.34;;;15.14;100.00
42111;BME280;27766;52.174;5.456;2023-08-06T12:20:06;100653.97;;;15.14;100.00
42111;BME280;27766;52.174;5.456;2023-08-06T12:22:34;100661.72;;;15.22;100.00
42111;BME280;27766;52.174;5.456;2023-08-06T12:25:03;100666.94;;;15.29;100.00
42111;BME280;27766;52.174;5.456;2023-08-06T12:27:30;100678.22;;;15.33;100.00
42111;BME280;27766;52.174;5.456;2023-08-06T12:29:58;100670.38;;;15.30;100.00
42111;BME280;27766;52.174;5.456;2023-08-06T12:32:25;100674.75;;;15.31;100.00
42111;BME280;27766;52.174;5.456;2023-08-06T12:34:52;100675.56;;;15.39;100.00
42111;BME280;27766;52.174;5.456;2023-08-06T12:37:20;100672.09;;;15.37;100.00
42111;BME280;27766;52.174;5.456;2023-08-06T12:39:47;100670.38;;;15.38;100.00
42111;BME280;27766;52.174;5.456;2023-08-06T12:42:14;100670.34;;;15.39;100.00
42111;BME280;27766;52.174;5.456;2023-08-06T12:44:42;100683.38;;;15.44;100.00
42111;BME280;27766;52.174;5.456;2023-08-06T12:47:10;100688.56;;;15.45;100.00
42111;BME280;27766;52.174;5.456;2023-08-06T12:49:37;100694.72;;;15.35;100.00
42111;BME280;27766;52.174;5.456;2023-08-06T12:52:05;100693.81;;;15.39;100.00
42111;BME280;27766;52.174;5.456;2023-08-06T12:54:35;100688.63;;;15.38;100.00
42111;BME280;27766;52.174;5.456;2023-08-06T12:57:22;100699.91;;;15.38;100.00
42111;BME280;27766;52.174;5.456;2023-08-06T12:59:51;100699.88;;;15.52;100.00